Terminal Aerodrome Forecast
Issued by NWS

Home | Current Version | Previous Version | Text Only | Print | Product List | Glossary On
Versions: 1 2 3 4 5 6 7 8 9 10 11 12 13 14
000
FTUS42 KTBW 280530
TAFPIE
TAF
KPIE 280530Z 2806/2906 09007KT P6SM FEW050
     FM281900 02004KT P6SM SCT040
     FM282300 30009KT P6SM FEW060 SCT200
     FM290400 05004KT P6SM FEW050 SCT070=

USA.gov is the U.S. government's official web portal to all federal, state and local government web resources and services.